sensor_id;sensor_type;location;lat;lon;timestamp;P1;durP1;ratioP1;P2;durP2;ratioP2
52041;SDS011;38052;45.944;13.624;2023-02-24T00:01:11;59.58;;;36.88;;
52041;SDS011;38052;45.944;13.624;2023-02-24T00:03:42;55.35;;;35.97;;
52041;SDS011;38052;45.944;13.624;2023-02-24T00:06:09;65.10;;;38.35;;
52041;SDS011;38052;45.944;13.624;2023-02-24T00:08:36;63.95;;;37.65;;
52041;SDS011;38052;45.944;13.624;2023-02-24T00:11:06;54.80;;;37.03;;
52041;SDS011;38052;45.944;13.624;2023-02-24T00:13:33;69.93;;;41.77;;
52041;SDS011;38052;45.944;13.624;2023-02-24T00:16:00;63.22;;;38.05;;
52041;SDS011;38052;45.944;13.624;2023-02-24T00:18:26;61.90;;;37.53;;
52041;SDS011;38052;45.944;13.624;2023-02-24T00:20:53;59.35;;;36.95;;
52041;SDS011;38052;45.944;13.624;2023-02-24T00:23:22;58.25;;;36.97;;
52041;SDS011;38052;45.944;13.624;2023-02-24T00:25:56;61.35;;;39.42;;
52041;SDS011;38052;45.944;13.624;2023-02-24T00:28:23;65.10;;;38.70;;
52041;SDS011;38052;45.944;13.624;2023-02-24T00:30:50;60.47;;;37.60;;
52041;SDS011;38052;45.944;13.624;2023-02-24T00:33:16;64.65;;;39.75;;
52041;SDS011;38052;45.944;13.624;2023-02-24T00:35:47;64.65;;;40.80;;
52041;SDS011;38052;45.944;13.624;2023-02-24T00:38:14;59.20;;;37.20;;
52041;SDS011;38052;45.944;13.624;2023-02-24T00:40:40;60.15;;;38.03;;
52041;SDS011;38052;45.944;13.624;2023-02-24T00:43:10;57.88;;;37.38;;
52041;SDS011;38052;45.944;13.624;2023-02-24T00:45:36;63.03;;;37.72;;
52041;SDS011;38052;45.944;13.624;2023-02-24T00:48:03;65.80;;;37.85;;
52041;SDS011;38052;45.944;13.624;2023-02-24T00:50:29;56.70;;;35.88;;
52041;SDS011;38052;45.944;13.624;2023-02-24T00:52:56;65.05;;;38.60;;
52041;SDS011;38052;45.944;13.624;2023-02-24T00:55:22;60.30;;;38.17;;
52041;SDS011;38052;45.944;13.624;2023-02-24T00:57:48;57.20;;;36.72;;
52041;SDS011;38052;45.944;13.624;2023-02-24T01:00:15;54.88;;;35.50;;
52041;SDS011;38052;45.944;13.624;2023-02-24T01:02:42;55.90;;;35.10;;
52041;SDS011;38052;45.944;13.624;2023-02-24T01:05:12;57.10;;;33.78;;
52041;SDS011;38052;45.944;13.624;2023-02-24T01:07:39;62.55;;;36.35;;
52041;SDS011;38052;45.944;13.624;2023-02-24T01:10:05;56.75;;;36.03;;
52041;SDS011;38052;45.944;13.624;2023-02-24T01:12:33;55.15;;;35.28;;
52041;SDS011;38052;45.944;13.624;2023-02-24T01:15:03;54.80;;;34.67;;
52041;SDS011;38052;45.944;13.624;2023-02-24T01:17:29;57.33;;;34.72;;
52041;SDS011;38052;45.944;13.624;2023-02-24T01:19:56;54.88;;;35.10;;
52041;SDS011;38052;45.944;13.624;2023-02-24T01:22:25;54.15;;;34.92;;
52041;SDS011;38052;45.944;13.624;2023-02-24T01:24:51;60.22;;;34.83;;
52041;SDS011;38052;45.944;13.624;2023-02-24T01:27:17;54.50;;;35.33;;
52041;SDS011;38052;45.944;13.624;2023-02-24T01:29:44;59.30;;;35.83;;
52041;SDS011;38052;45.944;13.624;2023-02-24T01:32:15;64.30;;;37.28;;
52041;SDS011;38052;45.944;13.624;2023-02-24T01:34:41;66.65;;;36.97;;
52041;SDS011;38052;45.944;13.624;2023-02-24T01:37:08;63.85;;;35.42;;
52041;SDS011;38052;45.944;13.624;2023-02-24T01:39:35;68.07;;;35.83;;
52041;SDS011;38052;45.944;13.624;2023-02-24T01:42:02;64.15;;;36.13;;
52041;SDS011;38052;45.944;13.624;2023-02-24T01:46:57;65.18;;;37.38;;
52041;SDS011;38052;45.944;13.624;2023-02-24T01:49:29;62.10;;;36.00;;
52041;SDS011;38052;45.944;13.624;2023-02-24T01:51:59;64.40;;;38.05;;
52041;SDS011;38052;45.944;13.624;2023-02-24T01:54:27;68.72;;;37.47;;
52041;SDS011;38052;45.944;13.624;2023-02-24T01:56:55;67.43;;;37.05;;
52041;SDS011;38052;45.944;13.624;2023-02-24T01:59:22;63.38;;;37.22;;
52041;SDS011;38052;45.944;13.624;2023-02-24T02:01:49;68.85;;;35.58;;
52041;SDS011;38052;45.944;13.624;2023-02-24T02:04:25;63.97;;;36.45;;
52041;SDS011;38052;45.944;13.624;2023-02-24T02:06:54;61.00;;;34.25;;
52041;SDS011;38052;45.944;13.624;2023-02-24T02:09:21;62.15;;;35.78;;
52041;SDS011;38052;45.944;13.624;2023-02-24T02:11:48;63.35;;;35.83;;
52041;SDS011;38052;45.944;13.624;2023-02-24T02:14:15;63.65;;;36.10;;
52041;SDS011;38052;45.944;13.624;2023-02-24T02:19:16;64.28;;;36.55;;
52041;SDS011;38052;45.944;13.624;2023-02-24T02:24:26;65.63;;;36.00;;
52041;SDS011;38052;45.944;13.624;2023-02-24T02:29:31;61.08;;;35.75;;
52041;SDS011;38052;45.944;13.624;2023-02-24T02:34:55;59.30;;;33.40;;
52041;SDS011;38052;45.944;13.624;2023-02-24T02:37:33;61.22;;;34.33;;
52041;SDS011;38052;45.944;13.624;2023-02-24T02:40:12;58.78;;;33.35;;
52041;SDS011;38052;45.944;13.624;2023-02-24T02:42:47;63.47;;;34.33;;
52041;SDS011;38052;45.944;13.624;2023-02-24T02:45:22;63.67;;;35.95;;
52041;SDS011;38052;45.944;13.624;2023-02-24T02:47:50;65.07;;;34.13;;
52041;SDS011;38052;45.944;13.624;2023-02-24T02:50:22;63.88;;;34.95;;
52041;SDS011;38052;45.944;13.624;2023-02-24T02:52:58;53.83;;;33.90;;
52041;SDS011;38052;45.944;13.624;2023-02-24T02:55:45;65.72;;;36.72;;
52041;SDS011;38052;45.944;13.624;2023-02-24T02:58:13;52.67;;;33.03;;
52041;SDS011;38052;45.944;13.624;2023-02-24T03:00:45;61.42;;;33.47;;
52041;SDS011;38052;45.944;13.624;2023-02-24T03:03:25;66.82;;;37.35;;
52041;SDS011;38052;45.944;13.624;2023-02-24T03:05:55;59.80;;;35.65;;
52041;SDS011;38052;45.944;13.624;2023-02-24T03:08:25;66.50;;;36.42;;
52041;SDS011;38052;45.944;13.624;2023-02-24T03:10:53;64.78;;;36.08;;
52041;SDS011;38052;45.944;13.624;2023-02-24T03:13:22;62.88;;;36.30;;
52041;SDS011;38052;45.944;13.624;2023-02-24T03:15:54;61.83;;;37.70;;
52041;SDS011;38052;45.944;13.624;2023-02-24T03:18:26;55.45;;;33.75;;
52041;SDS011;38052;45.944;13.624;2023-02-24T03:20:53;58.55;;;35.65;;
52041;SDS011;38052;45.944;13.624;2023-02-24T03:23:26;63.15;;;35.65;;
52041;SDS011;38052;45.944;13.624;2023-02-24T03:25:57;61.58;;;35.78;;
52041;SDS011;38052;45.944;13.624;2023-02-24T03:28:29;59.72;;;35.75;;
52041;SDS011;38052;45.944;13.624;2023-02-24T03:31:01;56.17;;;33.17;;
52041;SDS011;38052;45.944;13.624;2023-02-24T03:33:31;59.47;;;36.13;;
52041;SDS011;38052;45.944;13.624;2023-02-24T03:35:59;63.85;;;36.53;;
52041;SDS011;38052;45.944;13.624;2023-02-24T03:38:29;63.55;;;37.15;;
52041;SDS011;38052;45.944;13.624;2023-02-24T03:40:56;59.47;;;34.97;;
52041;SDS011;38052;45.944;13.624;2023-02-24T03:43:24;67.55;;;35.38;;
52041;SDS011;38052;45.944;13.624;2023-02-24T03:45:51;62.55;;;35.08;;
52041;SDS011;38052;45.944;13.624;2023-02-24T03:48:18;57.88;;;32.92;;
52041;SDS011;38052;45.944;13.624;2023-02-24T03:50:44;60.80;;;34.33;;
52041;SDS011;38052;45.944;13.624;2023-02-24T03:53:30;64.85;;;36.03;;
52041;SDS011;38052;45.944;13.624;2023-02-24T03:56:06;65.45;;;35.10;;
52041;SDS011;38052;45.944;13.624;2023-02-24T03:58:51;59.95;;;35.30;;
52041;SDS011;38052;45.944;13.624;2023-02-24T04:04:06;62.60;;;35.70;;
52041;SDS011;38052;45.944;13.624;2023-02-24T04:06:39;59.85;;;34.30;;
52041;SDS011;38052;45.944;13.624;2023-02-24T04:11:48;62.88;;;35.90;;
52041;SDS011;38052;45.944;13.624;2023-02-24T04:14:20;60.67;;;34.95;;
52041;SDS011;38052;45.944;13.624;2023-02-24T04:17:09;62.15;;;35.97;;
52041;SDS011;38052;45.944;13.624;2023-02-24T04:19:39;56.13;;;34.85;;
52041;SDS011;38052;45.944;13.624;2023-02-24T04:22:07;64.82;;;36.13;;
52041;SDS011;38052;45.944;13.624;2023-02-24T04:24:35;59.40;;;33.63;;
52041;SDS011;38052;45.944;13.624;2023-02-24T04:27:03;61.40;;;33.67;;
52041;SDS011;38052;45.944;13.624;2023-02-24T04:29:32;63.33;;;37.53;;
52041;SDS011;38052;45.944;13.624;2023-02-24T04:32:01;64.30;;;35.72;;
52041;SDS011;38052;45.944;13.624;2023-02-24T04:34:29;61.35;;;36.13;;
52041;SDS011;38052;45.944;13.624;2023-02-24T04:36:56;64.97;;;35.42;;
52041;SDS011;38052;45.944;13.624;2023-02-24T04:39:23;57.80;;;33.13;;
52041;SDS011;38052;45.944;13.624;2023-02-24T04:41:50;65.80;;;36.10;;
52041;SDS011;38052;45.944;13.624;2023-02-24T04:44:17;62.72;;;36.63;;
52041;SDS011;38052;45.944;13.624;2023-02-24T04:46:47;58.38;;;36.88;;
52041;SDS011;38052;45.944;13.624;2023-02-24T04:49:13;60.53;;;34.95;;
52041;SDS011;38052;45.944;13.624;2023-02-24T04:51:40;64.38;;;36.70;;
52041;SDS011;38052;45.944;13.624;2023-02-24T04:54:13;60.63;;;35.80;;
52041;SDS011;38052;45.944;13.624;2023-02-24T04:56:42;61.25;;;34.63;;
52041;SDS011;38052;45.944;13.624;2023-02-24T04:59:09;67.55;;;36.75;;
52041;SDS011;38052;45.944;13.624;2023-02-24T05:01:35;61.67;;;35.53;;
52041;SDS011;38052;45.944;13.624;2023-02-24T05:04:06;61.70;;;37.67;;
52041;SDS011;38052;45.944;13.624;2023-02-24T05:06:33;60.50;;;36.35;;
52041;SDS011;38052;45.944;13.624;2023-02-24T05:08:59;61.70;;;35.60;;
52041;SDS011;38052;45.944;13.624;2023-02-24T05:11:26;62.65;;;36.35;;
52041;SDS011;38052;45.944;13.624;2023-02-24T05:13:59;64.63;;;35.83;;
52041;SDS011;38052;45.944;13.624;2023-02-24T05:16:25;60.80;;;35.83;;
52041;SDS011;38052;45.944;13.624;2023-02-24T05:18:53;68.35;;;36.97;;
52041;SDS011;38052;45.944;13.624;2023-02-24T05:21:39;62.75;;;37.05;;
52041;SDS011;38052;45.944;13.624;2023-02-24T05:24:06;67.22;;;36.90;;
52041;SDS011;38052;45.944;13.624;2023-02-24T05:26:33;62.13;;;37.58;;
52041;SDS011;38052;45.944;13.624;2023-02-24T05:29:01;58.20;;;36.17;;
52041;SDS011;38052;45.944;13.624;2023-02-24T05:31:29;69.63;;;38.10;;
52041;SDS011;38052;45.944;13.624;2023-02-24T05:33:59;67.90;;;36.40;;
52041;SDS011;38052;45.944;13.624;2023-02-24T05:36:28;69.47;;;36.58;;
52041;SDS011;38052;45.944;13.624;2023-02-24T05:38:54;64.80;;;36.67;;
52041;SDS011;38052;45.944;13.624;2023-02-24T05:41:31;66.75;;;38.22;;
52041;SDS011;38052;45.944;13.624;2023-02-24T05:43:59;64.15;;;37.70;;
52041;SDS011;38052;45.944;13.624;2023-02-24T05:46:29;67.35;;;37.22;;
52041;SDS011;38052;45.944;13.624;2023-02-24T05:48:57;59.03;;;35.35;;
52041;SDS011;38052;45.944;13.624;2023-02-24T05:51:24;73.03;;;37.80;;
52041;SDS011;38052;45.944;13.624;2023-02-24T05:53:51;72.97;;;40.15;;
52041;SDS011;38052;45.944;13.624;2023-02-24T05:56:21;67.15;;;38.15;;
52041;SDS011;38052;45.944;13.624;2023-02-24T05:58:48;66.50;;;38.13;;
52041;SDS011;38052;45.944;13.624;2023-02-24T06:01:14;67.30;;;38.25;;
52041;SDS011;38052;45.944;13.624;2023-02-24T06:03:43;71.50;;;37.03;;
52041;SDS011;38052;45.944;13.624;2023-02-24T06:06:15;63.03;;;36.42;;
52041;SDS011;38052;45.944;13.624;2023-02-24T06:08:42;56.63;;;35.35;;
52041;SDS011;38052;45.944;13.624;2023-02-24T06:11:15;61.15;;;34.65;;
52041;SDS011;38052;45.944;13.624;2023-02-24T06:13:43;69.88;;;38.72;;
52041;SDS011;38052;45.944;13.624;2023-02-24T06:16:13;71.07;;;38.67;;
52041;SDS011;38052;45.944;13.624;2023-02-24T06:18:40;68.80;;;39.13;;
52041;SDS011;38052;45.944;13.624;2023-02-24T06:21:06;65.88;;;35.83;;
52041;SDS011;38052;45.944;13.624;2023-02-24T06:23:32;58.63;;;35.80;;
52041;SDS011;38052;45.944;13.624;2023-02-24T06:26:02;50.92;;;31.50;;
52041;SDS011;38052;45.944;13.624;2023-02-24T06:28:28;54.90;;;33.80;;
52041;SDS011;38052;45.944;13.624;2023-02-24T06:30:55;52.22;;;33.67;;
52041;SDS011;38052;45.944;13.624;2023-02-24T06:33:22;60.72;;;36.38;;
52041;SDS011;38052;45.944;13.624;2023-02-24T06:35:50;59.33;;;35.20;;
52041;SDS011;38052;45.944;13.624;2023-02-24T06:38:17;55.05;;;35.75;;
52041;SDS011;38052;45.944;13.624;2023-02-24T06:40:43;55.80;;;34.30;;
52041;SDS011;38052;45.944;13.624;2023-02-24T06:43:11;64.28;;;36.45;;
52041;SDS011;38052;45.944;13.624;2023-02-24T06:45:38;65.13;;;36.03;;
52041;SDS011;38052;45.944;13.624;2023-02-24T06:48:04;71.47;;;36.53;;
52041;SDS011;38052;45.944;13.624;2023-02-24T06:50:31;63.78;;;38.50;;
52041;SDS011;38052;45.944;13.624;2023-02-24T06:52:58;65.65;;;36.80;;
52041;SDS011;38052;45.944;13.624;2023-02-24T06:55:25;64.72;;;36.45;;
52041;SDS011;38052;45.944;13.624;2023-02-24T06:57:52;59.33;;;37.53;;
52041;SDS011;38052;45.944;13.624;2023-02-24T07:00:21;64.78;;;36.05;;
52041;SDS011;38052;45.944;13.624;2023-02-24T07:02:50;66.13;;;38.20;;
52041;SDS011;38052;45.944;13.624;2023-02-24T07:05:16;74.60;;;41.63;;
52041;SDS011;38052;45.944;13.624;2023-02-24T07:07:43;69.43;;;38.90;;
52041;SDS011;38052;45.944;13.624;2023-02-24T07:10:10;62.38;;;38.63;;
52041;SDS011;38052;45.944;13.624;2023-02-24T07:12:37;74.90;;;41.05;;
52041;SDS011;38052;45.944;13.624;2023-02-24T07:15:06;67.05;;;39.70;;
52041;SDS011;38052;45.944;13.624;2023-02-24T07:17:32;77.45;;;42.60;;
52041;SDS011;38052;45.944;13.624;2023-02-24T07:19:58;73.53;;;39.10;;
52041;SDS011;38052;45.944;13.624;2023-02-24T07:22:35;77.13;;;41.08;;
52041;SDS011;38052;45.944;13.624;2023-02-24T07:25:01;70.15;;;40.97;;
52041;SDS011;38052;45.944;13.624;2023-02-24T07:27:28;72.75;;;40.65;;
52041;SDS011;38052;45.944;13.624;2023-02-24T07:29:55;63.53;;;37.45;;
52041;SDS011;38052;45.944;13.624;2023-02-24T07:32:21;77.03;;;39.85;;
52041;SDS011;38052;45.944;13.624;2023-02-24T07:34:49;69.75;;;41.60;;
52041;SDS011;38052;45.944;13.624;2023-02-24T07:37:15;71.05;;;41.40;;
52041;SDS011;38052;45.944;13.624;2023-02-24T07:39:44;68.45;;;40.13;;
52041;SDS011;38052;45.944;13.624;2023-02-24T07:42:10;64.40;;;39.92;;
52041;SDS011;38052;45.944;13.624;2023-02-24T07:44:37;60.60;;;38.50;;
52041;SDS011;38052;45.944;13.624;2023-02-24T07:47:03;61.63;;;39.08;;
52041;SDS011;38052;45.944;13.624;2023-02-24T07:49:32;69.97;;;38.00;;
52041;SDS011;38052;45.944;13.624;2023-02-24T07:51:58;65.72;;;39.45;;
52041;SDS011;38052;45.944;13.624;2023-02-24T07:54:26;64.85;;;39.08;;
52041;SDS011;38052;45.944;13.624;2023-02-24T07:56:54;71.60;;;39.70;;
52041;SDS011;38052;45.944;13.624;2023-02-24T07:59:21;71.47;;;42.47;;
52041;SDS011;38052;45.944;13.624;2023-02-24T08:01:47;60.47;;;37.30;;
52041;SDS011;38052;45.944;13.624;2023-02-24T08:04:15;66.10;;;37.72;;
52041;SDS011;38052;45.944;13.624;2023-02-24T08:06:42;66.03;;;38.92;;
52041;SDS011;38052;45.944;13.624;2023-02-24T08:09:10;65.22;;;38.83;;
52041;SDS011;38052;45.944;13.624;2023-02-24T08:14:10;67.40;;;37.67;;
52041;SDS011;38052;45.944;13.624;2023-02-24T08:16:41;68.03;;;40.05;;
52041;SDS011;38052;45.944;13.624;2023-02-24T08:19:08;67.78;;;39.60;;
52041;SDS011;38052;45.944;13.624;2023-02-24T08:21:40;68.53;;;38.67;;
52041;SDS011;38052;45.944;13.624;2023-02-24T08:24:12;63.40;;;39.03;;
52041;SDS011;38052;45.944;13.624;2023-02-24T08:29:09;62.22;;;37.72;;
52041;SDS011;38052;45.944;13.624;2023-02-24T08:31:35;61.55;;;38.33;;
52041;SDS011;38052;45.944;13.624;2023-02-24T08:34:02;70.25;;;39.42;;
52041;SDS011;38052;45.944;13.624;2023-02-24T08:36:28;65.72;;;40.13;;
52041;SDS011;38052;45.944;13.624;2023-02-24T08:38:55;65.68;;;39.60;;
52041;SDS011;38052;45.944;13.624;2023-02-24T08:41:24;66.15;;;40.70;;
52041;SDS011;38052;45.944;13.624;2023-02-24T08:44:09;66.13;;;38.13;;
52041;SDS011;38052;45.944;13.624;2023-02-24T08:46:35;62.65;;;39.40;;
52041;SDS011;38052;45.944;13.624;2023-02-24T08:49:03;62.00;;;38.80;;
52041;SDS011;38052;45.944;13.624;2023-02-24T08:51:35;64.78;;;38.67;;
52041;SDS011;38052;45.944;13.624;2023-02-24T08:54:18;63.92;;;38.80;;
52041;SDS011;38052;45.944;13.624;2023-02-24T08:56:52;53.67;;;36.15;;
52041;SDS011;38052;45.944;13.624;2023-02-24T08:59:23;67.10;;;38.17;;
52041;SDS011;38052;45.944;13.624;2023-02-24T09:02:20;64.90;;;37.33;;
52041;SDS011;38052;45.944;13.624;2023-02-24T09:04:58;69.05;;;39.50;;
52041;SDS011;38052;45.944;13.624;2023-02-24T09:07:29;71.30;;;40.92;;
52041;SDS011;38052;45.944;13.624;2023-02-24T09:09:59;59.67;;;37.95;;
52041;SDS011;38052;45.944;13.624;2023-02-24T09:12:26;63.35;;;38.47;;
52041;SDS011;38052;45.944;13.624;2023-02-24T09:15:01;58.45;;;36.67;;
52041;SDS011;38052;45.944;13.624;2023-02-24T09:17:31;68.78;;;37.63;;
52041;SDS011;38052;45.944;13.624;2023-02-24T09:20:17;56.95;;;37.47;;
52041;SDS011;38052;45.944;13.624;2023-02-24T09:23:03;58.47;;;35.58;;
52041;SDS011;38052;45.944;13.624;2023-02-24T09:25:36;65.75;;;38.22;;
52041;SDS011;38052;45.944;13.624;2023-02-24T09:30:35;55.80;;;37.00;;
52041;SDS011;38052;45.944;13.624;2023-02-24T09:33:10;58.47;;;38.17;;
52041;SDS011;38052;45.944;13.624;2023-02-24T09:35:43;59.67;;;37.50;;
52041;SDS011;38052;45.944;13.624;2023-02-24T09:38:11;61.75;;;37.38;;
52041;SDS011;38052;45.944;13.624;2023-02-24T09:40:40;62.72;;;38.00;;
52041;SDS011;38052;45.944;13.624;2023-02-24T09:43:13;62.03;;;37.83;;
52041;SDS011;38052;45.944;13.624;2023-02-24T09:46:04;58.72;;;37.65;;
52041;SDS011;38052;45.944;13.624;2023-02-24T09:48:41;60.05;;;35.92;;
52041;SDS011;38052;45.944;13.624;2023-02-24T09:51:11;57.88;;;36.95;;
52041;SDS011;38052;45.944;13.624;2023-02-24T09:53:45;59.83;;;36.72;;
52041;SDS011;38052;45.944;13.624;2023-02-24T10:01:39;67.90;;;39.28;;
52041;SDS011;38052;45.944;13.624;2023-02-24T10:06:39;57.22;;;39.13;;
52041;SDS011;38052;45.944;13.624;2023-02-24T10:11:52;65.18;;;37.63;;
52041;SDS011;38052;45.944;13.624;2023-02-24T10:14:24;54.88;;;36.50;;
52041;SDS011;38052;45.944;13.624;2023-02-24T10:16:53;54.50;;;35.20;;
52041;SDS011;38052;45.944;13.624;2023-02-24T10:19:38;52.38;;;36.03;;
52041;SDS011;38052;45.944;13.624;2023-02-24T10:24:43;52.65;;;34.47;;
52041;SDS011;38052;45.944;13.624;2023-02-24T10:32:51;42.20;;;28.15;;
52041;SDS011;38052;45.944;13.624;2023-02-24T10:35:19;46.17;;;27.00;;
52041;SDS011;38052;45.944;13.624;2023-02-24T10:37:45;40.42;;;29.15;;
52041;SDS011;38052;45.944;13.624;2023-02-24T10:40:13;36.65;;;28.63;;
52041;SDS011;38052;45.944;13.624;2023-02-24T10:42:51;44.00;;;29.27;;
52041;SDS011;38052;45.944;13.624;2023-02-24T10:45:28;41.13;;;28.58;;
52041;SDS011;38052;45.944;13.624;2023-02-24T10:47:58;45.10;;;29.20;;
52041;SDS011;38052;45.944;13.624;2023-02-24T10:50:31;41.72;;;28.77;;
52041;SDS011;38052;45.944;13.624;2023-02-24T10:53:05;40.17;;;27.13;;
52041;SDS011;38052;45.944;13.624;2023-02-24T10:55:32;37.33;;;26.02;;
52041;SDS011;38052;45.944;13.624;2023-02-24T10:58:41;42.53;;;28.13;;
52041;SDS011;38052;45.944;13.624;2023-02-24T11:01:28;43.08;;;29.02;;
52041;SDS011;38052;45.944;13.624;2023-02-24T11:04:15;37.53;;;27.40;;
52041;SDS011;38052;45.944;13.624;2023-02-24T11:07:09;39.17;;;29.25;;
52041;SDS011;38052;45.944;13.624;2023-02-24T11:09:36;43.15;;;29.00;;
52041;SDS011;38052;45.944;13.624;2023-02-24T11:14:54;39.40;;;29.35;;
52041;SDS011;38052;45.944;13.624;2023-02-24T11:22:39;46.25;;;30.17;;
52041;SDS011;38052;45.944;13.624;2023-02-24T11:25:16;48.28;;;31.35;;
52041;SDS011;38052;45.944;13.624;2023-02-24T11:27:44;45.58;;;30.83;;
52041;SDS011;38052;45.944;13.624;2023-02-24T11:30:15;40.13;;;28.42;;
52041;SDS011;38052;45.944;13.624;2023-02-24T11:32:55;42.03;;;29.77;;
52041;SDS011;38052;45.944;13.624;2023-02-24T11:35:25;48.40;;;31.83;;
52041;SDS011;38052;45.944;13.624;2023-02-24T11:38:06;47.23;;;30.63;;
52041;SDS011;38052;45.944;13.624;2023-02-24T11:40:36;45.25;;;31.35;;
52041;SDS011;38052;45.944;13.624;2023-02-24T11:43:05;41.25;;;30.38;;
52041;SDS011;38052;45.944;13.624;2023-02-24T11:45:42;46.27;;;29.80;;
52041;SDS011;38052;45.944;13.624;2023-02-24T11:50:46;49.58;;;31.90;;
52041;SDS011;38052;45.944;13.624;2023-02-24T11:55:41;42.95;;;30.33;;
52041;SDS011;38052;45.944;13.624;2023-02-24T11:58:12;37.78;;;27.92;;
52041;SDS011;38052;45.944;13.624;2023-02-24T12:03:14;46.10;;;29.98;;
52041;SDS011;38052;45.944;13.624;2023-02-24T12:05:43;43.03;;;29.88;;
52041;SDS011;38052;45.944;13.624;2023-02-24T12:08:32;42.17;;;29.50;;
52041;SDS011;38052;45.944;13.624;2023-02-24T12:11:05;46.05;;;29.33;;
52041;SDS011;38052;45.944;13.624;2023-02-24T12:13:39;42.78;;;30.42;;
52041;SDS011;38052;45.944;13.624;2023-02-24T12:16:17;40.00;;;29.17;;
52041;SDS011;38052;45.944;13.624;2023-02-24T12:18:54;42.53;;;29.88;;
52041;SDS011;38052;45.944;13.624;2023-02-24T12:21:27;49.00;;;31.58;;
52041;SDS011;38052;45.944;13.624;2023-02-24T12:23:55;37.15;;;27.40;;
52041;SDS011;38052;45.944;13.624;2023-02-24T12:37:27;44.60;;;30.70;;
52041;SDS011;38052;45.944;13.624;2023-02-24T12:40:13;43.58;;;32.47;;
52041;SDS011;38052;45.944;13.624;2023-02-24T12:50:56;42.70;;;30.75;;
52041;SDS011;38052;45.944;13.624;2023-02-24T12:56:17;48.20;;;33.35;;
52041;SDS011;38052;45.944;13.624;2023-02-24T12:58:46;46.50;;;31.67;;
52041;SDS011;38052;45.944;13.624;2023-02-24T13:01:34;44.45;;;31.88;;
52041;SDS011;38052;45.944;13.624;2023-02-24T13:10:03;45.47;;;31.20;;
52041;SDS011;38052;45.944;13.624;2023-02-24T13:15:06;47.85;;;33.15;;
52041;SDS011;38052;45.944;13.624;2023-02-24T13:17:44;53.88;;;34.35;;
52041;SDS011;38052;45.944;13.624;2023-02-24T13:20:12;50.92;;;35.38;;
52041;SDS011;38052;45.944;13.624;2023-02-24T13:22:41;53.05;;;35.22;;
52041;SDS011;38052;45.944;13.624;2023-02-24T13:25:13;48.35;;;34.92;;
52041;SDS011;38052;45.944;13.624;2023-02-24T13:27:42;52.95;;;37.25;;
52041;SDS011;38052;45.944;13.624;2023-02-24T13:32:46;54.13;;;36.67;;
52041;SDS011;38052;45.944;13.624;2023-02-24T13:37:39;58.17;;;38.78;;
52041;SDS011;38052;45.944;13.624;2023-02-24T13:45:22;58.20;;;38.38;;
52041;SDS011;38052;45.944;13.624;2023-02-24T14:03:30;58.25;;;41.28;;
52041;SDS011;38052;45.944;13.624;2023-02-24T14:05:58;57.00;;;39.65;;
52041;SDS011;38052;45.944;13.624;2023-02-24T14:08:36;59.63;;;38.97;;
52041;SDS011;38052;45.944;13.624;2023-02-24T14:11:05;56.88;;;40.88;;
52041;SDS011;38052;45.944;13.624;2023-02-24T14:13:33;57.38;;;39.63;;
52041;SDS011;38052;45.944;13.624;2023-02-24T14:16:03;59.95;;;37.75;;
52041;SDS011;38052;45.944;13.624;2023-02-24T14:18:31;62.08;;;39.17;;
52041;SDS011;38052;45.944;13.624;2023-02-24T14:20:57;56.50;;;40.50;;
52041;SDS011;38052;45.944;13.624;2023-02-24T14:23:25;54.97;;;39.40;;
52041;SDS011;38052;45.944;13.624;2023-02-24T14:25:59;57.97;;;40.22;;
52041;SDS011;38052;45.944;13.624;2023-02-24T14:28:28;61.10;;;39.63;;
52041;SDS011;38052;45.944;13.624;2023-02-24T14:30:55;60.83;;;39.08;;
52041;SDS011;38052;45.944;13.624;2023-02-24T14:33:27;58.83;;;40.05;;
52041;SDS011;38052;45.944;13.624;2023-02-24T14:35:53;53.22;;;39.92;;
52041;SDS011;38052;45.944;13.624;2023-02-24T14:38:27;59.67;;;39.75;;
52041;SDS011;38052;45.944;13.624;2023-02-24T14:40:54;62.60;;;38.40;;
52041;SDS011;38052;45.944;13.624;2023-02-24T14:43:20;54.47;;;37.20;;
52041;SDS011;38052;45.944;13.624;2023-02-24T14:45:47;65.25;;;42.13;;
52041;SDS011;38052;45.944;13.624;2023-02-24T14:48:23;56.75;;;40.35;;
52041;SDS011;38052;45.944;13.624;2023-02-24T14:50:50;56.60;;;38.47;;
52041;SDS011;38052;45.944;13.624;2023-02-24T14:53:17;61.35;;;39.88;;
52041;SDS011;38052;45.944;13.624;2023-02-24T14:55:46;56.10;;;37.65;;
52041;SDS011;38052;45.944;13.624;2023-02-24T14:58:20;56.65;;;37.33;;
52041;SDS011;38052;45.944;13.624;2023-02-24T15:03:26;62.90;;;40.30;;
52041;SDS011;38052;45.944;13.624;2023-02-24T15:05:58;61.28;;;41.20;;
52041;SDS011;38052;45.944;13.624;2023-02-24T15:08:30;61.70;;;40.78;;
52041;SDS011;38052;45.944;13.624;2023-02-24T15:10:58;57.22;;;40.17;;
52041;SDS011;38052;45.944;13.624;2023-02-24T15:13:32;57.72;;;39.33;;
52041;SDS011;38052;45.944;13.624;2023-02-24T15:16:02;60.85;;;39.47;;
52041;SDS011;38052;45.944;13.624;2023-02-24T15:18:29;57.10;;;38.58;;
52041;SDS011;38052;45.944;13.624;2023-02-24T15:21:06;61.33;;;40.08;;
52041;SDS011;38052;45.944;13.624;2023-02-24T15:23:34;58.17;;;39.80;;
52041;SDS011;38052;45.944;13.624;2023-02-24T15:26:01;62.38;;;40.60;;
52041;SDS011;38052;45.944;13.624;2023-02-24T15:28:32;55.20;;;39.22;;
52041;SDS011;38052;45.944;13.624;2023-02-24T15:31:00;55.30;;;39.38;;
52041;SDS011;38052;45.944;13.624;2023-02-24T15:33:32;59.10;;;39.67;;
52041;SDS011;38052;45.944;13.624;2023-02-24T15:35:59;60.15;;;40.03;;
52041;SDS011;38052;45.944;13.624;2023-02-24T15:40:52;61.17;;;39.72;;
52041;SDS011;38052;45.944;13.624;2023-02-24T15:45:57;62.78;;;41.50;;
52041;SDS011;38052;45.944;13.624;2023-02-24T15:48:23;61.92;;;41.88;;
52041;SDS011;38052;45.944;13.624;2023-02-24T15:50:53;61.58;;;40.97;;
52041;SDS011;38052;45.944;13.624;2023-02-24T15:53:20;54.58;;;39.38;;
52041;SDS011;38052;45.944;13.624;2023-02-24T15:55:46;67.05;;;42.42;;
52041;SDS011;38052;45.944;13.624;2023-02-24T15:58:14;64.43;;;42.67;;
52041;SDS011;38052;45.944;13.624;2023-02-24T16:00:41;58.25;;;40.88;;
52041;SDS011;38052;45.944;13.624;2023-02-24T16:03:08;60.60;;;41.15;;
52041;SDS011;38052;45.944;13.624;2023-02-24T16:05:34;67.30;;;43.70;;
52041;SDS011;38052;45.944;13.624;2023-02-24T16:08:00;64.55;;;43.08;;
52041;SDS011;38052;45.944;13.624;2023-02-24T16:10:28;64.95;;;43.22;;
52041;SDS011;38052;45.944;13.624;2023-02-24T16:12:58;69.03;;;44.47;;
52041;SDS011;38052;45.944;13.624;2023-02-24T16:15:26;66.03;;;44.55;;
52041;SDS011;38052;45.944;13.624;2023-02-24T16:17:53;62.00;;;42.17;;
52041;SDS011;38052;45.944;13.624;2023-02-24T16:20:24;65.03;;;43.50;;
52041;SDS011;38052;45.944;13.624;2023-02-24T16:22:58;65.40;;;42.33;;
52041;SDS011;38052;45.944;13.624;2023-02-24T16:25:25;72.73;;;45.07;;
52041;SDS011;38052;45.944;13.624;2023-02-24T16:27:53;74.95;;;44.42;;
52041;SDS011;38052;45.944;13.624;2023-02-24T16:30:22;67.55;;;43.30;;